createdAt,value
2022-09-26T00:00:16.910Z,91.50
2022-09-26T00:02:43.638Z,91.36
2022-09-26T00:05:10.282Z,91.61
2022-09-26T00:07:37.260Z,91.56
2022-09-26T00:10:04.827Z,90.67
2022-09-26T00:12:31.438Z,91.22
2022-09-26T00:14:58.217Z,90.58
2022-09-26T00:17:26.109Z,91.03
2022-09-26T00:19:52.602Z,91.08
2022-09-26T00:22:19.208Z,91.37
2022-09-26T00:24:45.701Z,91.79
2022-09-26T00:27:12.249Z,91.27
2022-09-26T00:29:38.813Z,92.09
2022-09-26T00:32:05.443Z,92.29
2022-09-26T00:34:33.315Z,92.30
2022-09-26T00:37:00.120Z,92.22
2022-09-26T00:39:26.643Z,92.69
2022-09-26T00:41:53.263Z,92.15
2022-09-26T00:44:37.684Z,92.23
2022-09-26T00:47:07.275Z,92.21
2022-09-26T00:49:37.927Z,92.17
2022-09-26T00:52:09.047Z,91.40
2022-09-26T00:54:39.488Z,91.90
2022-09-26T00:57:09.995Z,92.44
2022-09-26T00:59:39.455Z,92.50
2022-09-26T01:02:06.251Z,91.88
2022-09-26T01:04:37.505Z,91.93
2022-09-26T01:07:08.317Z,91.89
2022-09-26T01:09:35.578Z,91.82
2022-09-26T01:12:04.598Z,91.40
2022-09-26T01:14:33.046Z,91.89
2022-09-26T01:16:59.843Z,90.81
2022-09-26T01:19:38.002Z,91.56
2022-09-26T01:22:44.460Z,91.33
2022-09-26T01:25:22.040Z,91.45
2022-09-26T01:28:04.312Z,91.73
2022-09-26T01:30:39.141Z,92.46
2022-09-26T01:33:37.305Z,91.98
2022-09-26T01:36:42.851Z,92.62
2022-09-26T01:39:23.295Z,92.45
2022-09-26T01:41:57.886Z,92.64
2022-09-26T01:44:32.415Z,93.15
2022-09-26T01:47:09.439Z,92.84
2022-09-26T01:49:42.883Z,92.30
2022-09-26T01:52:15.877Z,92.87
2022-09-26T01:54:48.922Z,93.35
2022-09-26T01:57:28.062Z,92.72
2022-09-26T01:59:59.240Z,93.00
2022-09-26T02:02:31.244Z,92.60
2022-09-26T02:05:02.797Z,92.39
2022-09-26T02:07:36.362Z,91.96
2022-09-26T02:10:09.296Z,92.26
2022-09-26T02:12:39.251Z,92.27
2022-09-26T02:15:09.273Z,92.82
2022-09-26T02:17:41.384Z,92.51
2022-09-26T02:20:11.803Z,92.28
2022-09-26T02:22:39.004Z,92.08
2022-09-26T02:25:09.005Z,91.81
2022-09-26T02:27:35.616Z,92.37
2022-09-26T02:30:04.167Z,91.54
2022-09-26T02:32:32.722Z,92.04
2022-09-26T02:35:02.119Z,92.27
2022-09-26T02:37:31.470Z,91.78
2022-09-26T02:39:58.099Z,92.20
2022-09-26T02:42:31.774Z,91.98
2022-09-26T02:45:12.003Z,92.42
2022-09-26T02:47:53.586Z,91.78
2022-09-26T02:50:34.830Z,91.63
2022-09-26T02:53:14.208Z,91.67
2022-09-26T02:56:00.284Z,91.60
2022-09-26T02:58:33.754Z,91.73
2022-09-26T03:01:09.070Z,92.07
2022-09-26T03:03:41.379Z,91.91
2022-09-26T03:06:15.225Z,91.78
2022-09-26T03:08:47.090Z,91.84
2022-09-26T03:11:18.720Z,92.10
2022-09-26T03:13:47.388Z,92.30
2022-09-26T03:16:14.653Z,91.86
2022-09-26T03:18:48.673Z,92.43
2022-09-26T03:21:17.307Z,92.16
2022-09-26T03:23:44.006Z,92.09
2022-09-26T03:26:15.874Z,92.17
2022-09-26T03:28:52.024Z,92.06
2022-09-26T03:31:18.813Z,92.08
2022-09-26T03:34:05.646Z,92.00
2022-09-26T03:36:34.550Z,92.45
2022-09-26T03:39:03.528Z,91.95
2022-09-26T03:41:56.722Z,92.33
2022-09-26T03:44:26.035Z,92.22
2022-09-26T03:47:13.283Z,91.77
2022-09-26T03:49:42.058Z,91.95
2022-09-26T03:54:51.428Z,92.46
2022-09-26T03:57:19.156Z,92.16
2022-09-26T03:59:50.823Z,92.06
2022-09-26T04:02:18.673Z,91.32
2022-09-26T04:04:49.872Z,91.60
2022-09-26T04:07:16.661Z,91.86
2022-09-26T04:09:43.365Z,91.73
2022-09-26T04:12:12.414Z,91.66
2022-09-26T04:14:42.508Z,91.54
2022-09-26T04:17:09.467Z,91.45
2022-09-26T04:19:39.556Z,91.19
2022-09-26T04:22:07.058Z,91.50
2022-09-26T04:24:34.815Z,91.54
2022-09-26T04:27:01.604Z,91.38
2022-09-26T04:29:30.704Z,91.67
2022-09-26T04:32:05.985Z,91.70
2022-09-26T04:34:46.987Z,91.45
2022-09-26T04:37:13.768Z,91.30
2022-09-26T04:39:41.544Z,91.37
2022-09-26T04:42:08.126Z,91.73
2022-09-26T04:44:36.720Z,91.71
2022-09-26T04:47:03.355Z,92.03
2022-09-26T04:49:49.857Z,91.59
2022-09-26T04:52:18.051Z,91.81
2022-09-26T04:54:44.627Z,92.08
2022-09-26T04:57:13.855Z,91.77
2022-09-26T04:59:45.403Z,91.81
2022-09-26T05:02:12.651Z,91.70
2022-09-26T05:04:41.173Z,92.45
2022-09-26T05:07:07.695Z,92.15
2022-09-26T05:09:36.239Z,92.03
2022-09-26T05:12:23.262Z,92.50
2022-09-26T05:14:52.410Z,92.79
2022-09-26T05:17:19.053Z,92.83
2022-09-26T05:19:46.417Z,93.03
2022-09-26T05:22:28.825Z,93.33
2022-09-26T05:24:55.419Z,93.15
2022-09-26T05:27:22.520Z,93.44
2022-09-26T05:29:49.653Z,92.95
2022-09-26T05:32:18.685Z,93.55
2022-09-26T05:34:45.744Z,93.59
2022-09-26T05:37:15.253Z,94.66
2022-09-26T05:39:42.769Z,94.50
2022-09-26T05:42:11.900Z,94.85
2022-09-26T05:44:39.117Z,94.80
2022-09-26T05:47:05.733Z,94.63
2022-09-26T05:49:33.803Z,94.62
2022-09-26T05:52:00.861Z,94.84
2022-09-26T05:54:28.513Z,94.46
2022-09-26T05:56:56.173Z,94.47
2022-09-26T05:59:41.079Z,94.43
2022-09-26T06:02:26.231Z,94.78
2022-09-26T06:05:12.734Z,94.84
2022-09-26T06:08:08.958Z,94.79
2022-09-26T06:10:42.997Z,94.88
2022-09-26T06:13:09.990Z,95.00
2022-09-26T06:15:47.252Z,95.55
2022-09-26T06:18:14.125Z,95.84
2022-09-26T06:20:42.064Z,96.04
2022-09-26T06:23:08.665Z,96.07
2022-09-26T06:25:37.669Z,96.20
2022-09-26T06:28:04.308Z,95.76
2022-09-26T06:30:31.056Z,96.16
2022-09-26T06:33:09.076Z,96.47
2022-09-26T06:36:02.037Z,96.36
2022-09-26T06:38:36.902Z,96.76
2022-09-26T06:41:05.842Z,96.88
2022-09-26T06:43:32.629Z,96.73
2022-09-26T06:46:17.840Z,97.12
2022-09-26T06:48:52.461Z,97.51
2022-09-26T06:51:23.364Z,97.35
2022-09-26T06:53:50.003Z,97.62
2022-09-26T06:56:20.489Z,97.36
2022-09-26T06:58:47.174Z,97.50
2022-09-26T07:01:15.426Z,97.15
2022-09-26T07:04:01.220Z,97.14
2022-09-26T07:06:35.178Z,97.29
2022-09-26T07:09:05.491Z,97.05
2022-09-26T07:12:14.086Z,96.40
2022-09-26T07:14:40.933Z,96.55
2022-09-26T07:17:18.016Z,96.62
2022-09-26T07:20:06.216Z,95.99
2022-09-26T07:22:52.787Z,95.77
2022-09-26T07:25:19.531Z,95.66
2022-09-26T07:27:49.423Z,95.67
2022-09-26T07:30:16.217Z,95.23
2022-09-26T07:32:57.819Z,94.52
2022-09-26T07:35:44.304Z,94.83
2022-09-26T07:38:12.295Z,94.52
2022-09-26T07:40:39.650Z,93.19
2022-09-26T07:43:19.706Z,88.44
2022-09-26T07:45:50.725Z,85.77
2022-09-26T07:48:17.246Z,85.08
2022-09-26T07:51:09.027Z,81.18
2022-09-26T07:53:44.700Z,82.44
2022-09-26T07:56:34.283Z,78.14
2022-09-26T07:59:21.316Z,78.96
2022-09-26T08:02:20.217Z,79.70
2022-09-26T08:04:47.250Z,79.35
2022-09-26T08:07:14.130Z,76.06
2022-09-26T08:09:54.025Z,74.17
2022-09-26T08:12:40.745Z,74.19
2022-09-26T08:15:20.065Z,74.44
2022-09-26T08:17:46.743Z,73.02
2022-09-26T08:20:13.234Z,72.06
2022-09-26T08:22:39.834Z,70.53
2022-09-26T08:25:09.389Z,68.17
2022-09-26T08:27:54.536Z,68.77
2022-09-26T08:30:21.143Z,67.98
2022-09-26T08:32:52.990Z,66.22
2022-09-26T08:35:19.734Z,66.29
2022-09-26T08:37:46.435Z,65.84
2022-09-26T08:41:00.383Z,66.31
2022-09-26T08:43:57.807Z,67.11
2022-09-26T08:47:04.823Z,66.93
2022-09-26T08:50:03.486Z,66.13
2022-09-26T08:52:37.495Z,65.82
2022-09-26T08:55:12.563Z,66.50
2022-09-26T08:57:44.375Z,65.92
2022-09-26T09:00:18.662Z,66.16
2022-09-26T09:02:58.510Z,68.08
2022-09-26T09:05:29.177Z,68.26
2022-09-26T09:07:58.635Z,68.94
2022-09-26T09:10:37.927Z,68.54
2022-09-26T09:13:31.384Z,69.35
2022-09-26T09:16:47.150Z,68.15
2022-09-26T09:19:45.243Z,68.49
2022-09-26T09:22:49.274Z,67.95
2022-09-26T09:25:23.643Z,68.78
2022-09-26T09:28:08.632Z,67.46
2022-09-26T09:30:42.970Z,67.43
2022-09-26T09:33:32.069Z,67.42
2022-09-26T09:36:40.476Z,67.06
2022-09-26T09:39:27.643Z,67.96
2022-09-26T09:42:05.309Z,66.46
2022-09-26T09:44:46.378Z,68.08
2022-09-26T09:47:17.273Z,68.83
2022-09-26T09:49:46.501Z,69.15
2022-09-26T09:52:37.024Z,69.18
2022-09-26T09:55:16.684Z,71.62
2022-09-26T09:57:56.467Z,72.47
2022-09-26T10:00:25.029Z,72.54
2022-09-26T10:03:17.590Z,74.20
2022-09-26T10:05:46.875Z,74.28
2022-09-26T10:08:29.113Z,74.23
2022-09-26T10:11:27.078Z,74.69
2022-09-26T10:14:01.319Z,76.28
2022-09-26T10:17:13.398Z,76.66
2022-09-26T10:20:06.183Z,76.67
2022-09-26T10:22:43.429Z,77.44
2022-09-26T10:25:18.514Z,78.00
2022-09-26T10:27:50.668Z,78.34
2022-09-26T10:30:24.270Z,79.18
2022-09-26T10:32:56.403Z,80.13
2022-09-26T10:35:45.432Z,80.06
2022-09-26T10:38:22.716Z,80.59
2022-09-26T10:41:22.688Z,80.47
2022-09-26T10:43:52.781Z,81.26
2022-09-26T10:46:42.628Z,81.98
2022-09-26T10:49:34.039Z,81.54
2022-09-26T10:52:39.840Z,81.94
2022-09-26T10:55:11.529Z,82.41
2022-09-26T10:57:43.651Z,81.36
2022-09-26T11:00:18.650Z,81.48
2022-09-26T11:02:46.758Z,81.86
2022-09-26T11:05:16.683Z,82.61
2022-09-26T11:07:46.758Z,83.92
2022-09-26T11:10:37.422Z,84.54
2022-09-26T11:13:44.394Z,83.93
2022-09-26T11:16:13.278Z,84.31
2022-09-26T11:18:49.257Z,83.45
2022-09-26T11:21:29.200Z,83.54
2022-09-26T11:24:05.916Z,82.87
2022-09-26T11:26:38.662Z,82.71
2022-09-26T11:29:14.095Z,84.32
2022-09-26T11:31:55.068Z,84.17
2022-09-26T11:34:29.302Z,85.55
2022-09-26T11:37:27.788Z,84.86
2022-09-26T11:40:13.052Z,85.15
2022-09-26T11:42:56.115Z,84.33
2022-09-26T11:45:37.715Z,83.65
2022-09-26T11:48:54.175Z,83.96
2022-09-26T11:52:09.113Z,82.83
2022-09-26T11:54:59.332Z,83.54
2022-09-26T11:57:37.371Z,84.91
2022-09-26T12:00:10.497Z,83.37
2022-09-26T12:02:52.956Z,82.23
2022-09-26T12:05:36.887Z,82.13
2022-09-26T12:08:17.600Z,82.38
2022-09-26T12:10:54.506Z,80.26
2022-09-26T12:13:30.292Z,80.12
2022-09-26T12:16:06.882Z,79.42
2022-09-26T12:18:38.291Z,80.04
2022-09-26T12:21:17.739Z,78.85
2022-09-26T12:23:51.781Z,77.78
2022-09-26T12:26:27.488Z,78.17
2022-09-26T12:29:05.346Z,78.66
2022-09-26T12:31:45.973Z,77.32
2022-09-26T12:34:29.831Z,76.59
2022-09-26T12:37:07.056Z,75.78
2022-09-26T12:39:57.260Z,73.92
2022-09-26T12:42:45.110Z,70.97
2022-09-26T12:45:41.648Z,72.21
2022-09-26T12:48:24.851Z,71.93
2022-09-26T12:51:07.060Z,68.41
2022-09-26T12:53:53.808Z,69.73
2022-09-26T12:56:29.281Z,69.27
2022-09-26T12:59:12.048Z,67.09
2022-09-26T13:02:04.411Z,69.46
2022-09-26T13:05:03.719Z,67.00
2022-09-26T13:07:48.868Z,65.31
2022-09-26T13:10:32.643Z,65.77
2022-09-26T13:13:27.934Z,65.48
2022-09-26T13:16:07.601Z,63.35
2022-09-26T13:18:38.777Z,64.73
2022-09-26T13:21:09.105Z,63.97
2022-09-26T13:23:41.694Z,64.77
2022-09-26T13:26:14.078Z,64.43
2022-09-26T13:29:06.344Z,63.23
2022-09-26T13:31:40.894Z,63.41
2022-09-26T13:34:15.209Z,64.23
2022-09-26T13:36:43.300Z,63.24
2022-09-26T13:39:17.336Z,65.02
2022-09-26T13:41:54.183Z,64.46
2022-09-26T13:44:29.896Z,65.24
2022-09-26T13:47:21.450Z,66.45
2022-09-26T13:49:59.186Z,67.92
2022-09-26T13:52:43.403Z,68.75
2022-09-26T13:55:14.964Z,70.69
2022-09-26T13:57:47.735Z,70.98
2022-09-26T14:00:42.582Z,72.14
2022-09-26T14:03:39.223Z,75.93
2022-09-26T14:06:28.386Z,74.91
2022-09-26T14:09:13.624Z,75.48
2022-09-26T14:11:50.689Z,77.07
2022-09-26T14:14:42.562Z,78.18
2022-09-26T14:17:47.882Z,79.45
2022-09-26T14:20:24.267Z,79.55
2022-09-26T14:22:54.256Z,79.78
2022-09-26T14:25:55.609Z,79.63
2022-09-26T14:28:32.113Z,80.00
2022-09-26T14:31:21.152Z,79.00
2022-09-26T14:33:49.462Z,80.32
2022-09-26T14:36:34.058Z,80.88
2022-09-26T14:39:02.429Z,81.07
2022-09-26T14:41:32.592Z,80.63
2022-09-26T14:44:02.412Z,81.20
2022-09-26T14:46:31.724Z,81.67
2022-09-26T14:49:01.136Z,81.94
2022-09-26T14:51:32.522Z,82.67
2022-09-26T14:54:02.616Z,82.92
2022-09-26T14:56:35.775Z,83.21
2022-09-26T14:59:29.382Z,82.81
2022-09-26T15:02:19.590Z,84.16
2022-09-26T15:04:50.329Z,84.09
2022-09-26T15:07:21.654Z,83.92
2022-09-26T15:09:54.689Z,84.73
2022-09-26T15:12:26.152Z,84.97
2022-09-26T15:15:04.751Z,84.59
2022-09-26T15:17:36.882Z,84.95
2022-09-26T15:20:06.718Z,85.67
2022-09-26T15:22:35.394Z,85.46
2022-09-26T15:25:08.786Z,86.44
2022-09-26T15:27:35.538Z,86.61
2022-09-26T15:30:05.591Z,86.50
2022-09-26T15:32:33.852Z,86.24
2022-09-26T15:35:03.160Z,86.58
2022-09-26T15:37:32.663Z,86.54
2022-09-26T15:40:11.605Z,85.75
2022-09-26T15:42:38.300Z,87.10
2022-09-26T15:45:17.407Z,87.44
2022-09-26T15:47:44.199Z,87.72
2022-09-26T15:50:12.844Z,86.68
2022-09-26T15:52:43.218Z,86.05
2022-09-26T15:55:17.287Z,87.36
2022-09-26T15:57:44.595Z,86.97
2022-09-26T16:00:14.002Z,85.55
2022-09-26T16:02:41.301Z,86.19
2022-09-26T16:05:12.852Z,86.27
2022-09-26T16:07:46.457Z,86.51
2022-09-26T16:10:28.029Z,86.12
2022-09-26T16:12:55.378Z,85.90
2022-09-26T16:15:26.350Z,86.58
2022-09-26T16:17:54.870Z,86.59
2022-09-26T16:20:27.141Z,86.34
2022-09-26T16:22:54.298Z,87.48
2022-09-26T16:25:29.314Z,88.39
2022-09-26T16:28:15.370Z,87.99
2022-09-26T16:30:44.361Z,87.34
2022-09-26T16:33:28.091Z,88.22
2022-09-26T16:35:55.073Z,88.43
2022-09-26T16:38:26.114Z,88.87
2022-09-26T16:40:56.649Z,88.95
2022-09-26T16:43:26.289Z,89.50
2022-09-26T16:45:59.157Z,89.27
2022-09-26T16:48:38.532Z,89.36
2022-09-26T16:51:12.976Z,89.37
2022-09-26T16:53:42.546Z,89.62
2022-09-26T16:56:12.932Z,89.80
2022-09-26T16:58:48.969Z,89.78
2022-09-26T17:01:16.374Z,90.08
2022-09-26T17:03:43.138Z,89.33
2022-09-26T17:06:10.079Z,87.91
2022-09-26T17:08:36.630Z,88.50
2022-09-26T17:11:04.415Z,88.68
2022-09-26T17:13:35.215Z,89.34
2022-09-26T17:16:02.343Z,89.77
2022-09-26T17:18:30.109Z,89.51
2022-09-26T17:20:57.068Z,90.06
2022-09-26T17:23:40.938Z,90.27
2022-09-26T17:26:10.987Z,90.30
2022-09-26T17:28:41.433Z,90.18
2022-09-26T17:31:12.968Z,91.25
2022-09-26T17:33:40.887Z,90.87
2022-09-26T17:36:18.108Z,89.74
2022-09-26T17:38:44.711Z,89.27
2022-09-26T17:41:11.258Z,89.39
2022-09-26T17:43:39.380Z,89.82
2022-09-26T17:46:06.386Z,89.76
2022-09-26T17:48:33.180Z,89.28
2022-09-26T17:51:01.883Z,89.90
2022-09-26T17:53:36.377Z,90.38
2022-09-26T17:56:04.716Z,90.13
2022-09-26T17:58:31.606Z,89.79
2022-09-26T18:00:59.760Z,89.87
2022-09-26T18:03:28.686Z,90.18
2022-09-26T18:05:55.956Z,90.38
2022-09-26T18:08:25.781Z,90.15
2022-09-26T18:10:54.266Z,90.55
2022-09-26T18:13:23.856Z,90.75
2022-09-26T18:15:50.957Z,90.87
2022-09-26T18:18:20.737Z,90.98
2022-09-26T18:20:47.532Z,90.75
2022-09-26T18:23:17.828Z,90.83
2022-09-26T18:25:45.157Z,90.84
2022-09-26T18:28:14.807Z,91.45
2022-09-26T18:30:44.264Z,91.39
2022-09-26T18:33:13.305Z,91.37
2022-09-26T18:35:41.436Z,91.30
2022-09-26T18:38:08.207Z,91.41
2022-09-26T18:40:39.975Z,91.70
2022-09-26T18:43:06.913Z,91.58
2022-09-26T18:45:34.699Z,91.67
2022-09-26T18:48:04.282Z,91.72
2022-09-26T18:50:33.653Z,91.69
2022-09-26T18:53:02.059Z,91.70
2022-09-26T18:55:28.740Z,92.08
2022-09-26T18:57:55.263Z,92.14
2022-09-26T19:00:21.809Z,91.93
2022-09-26T19:02:48.871Z,92.35
2022-09-26T19:05:16.249Z,92.14
2022-09-26T19:07:43.262Z,92.11
2022-09-26T19:10:15.648Z,92.74
2022-09-26T19:12:42.270Z,92.53
2022-09-26T19:15:13.097Z,92.87
2022-09-26T19:17:39.747Z,92.60
2022-09-26T19:20:06.548Z,92.63
2022-09-26T19:22:33.679Z,92.52
2022-09-26T19:25:01.525Z,92.72
2022-09-26T19:27:33.988Z,92.73
2022-09-26T19:30:02.602Z,92.76
2022-09-26T19:32:32.607Z,92.96
2022-09-26T19:35:01.634Z,93.10
2022-09-26T19:37:28.406Z,92.77
2022-09-26T19:39:55.071Z,93.23
2022-09-26T19:42:21.885Z,93.09
2022-09-26T19:44:50.245Z,93.02
2022-09-26T19:47:18.170Z,93.13
2022-09-26T19:49:47.185Z,93.26
2022-09-26T19:52:15.652Z,93.30
2022-09-26T19:54:42.607Z,93.70
2022-09-26T19:57:14.642Z,93.49
2022-09-26T19:59:42.635Z,93.90
2022-09-26T20:02:14.757Z,93.78
2022-09-26T20:04:41.469Z,94.49
2022-09-26T20:07:11.484Z,94.15
2022-09-26T20:09:38.139Z,94.63
2022-09-26T20:12:04.968Z,93.99
2022-09-26T20:14:31.708Z,94.30
2022-09-26T20:17:01.444Z,94.49
2022-09-26T20:19:33.438Z,94.42
2022-09-26T20:22:01.719Z,94.86
2022-09-26T20:24:30.760Z,95.06
2022-09-26T20:26:59.376Z,95.02
2022-09-26T20:29:25.985Z,94.80
2022-09-26T20:31:53.148Z,95.11
2022-09-26T20:34:19.691Z,95.37
2022-09-26T20:36:49.452Z,95.71
2022-09-26T20:39:21.215Z,94.95
2022-09-26T20:41:47.681Z,94.88
2022-09-26T20:44:18.462Z,94.33
2022-09-26T20:46:48.938Z,94.89
2022-09-26T20:49:19.611Z,94.63
2022-09-26T20:51:48.385Z,95.25
2022-09-26T20:54:24.017Z,95.72
2022-09-26T20:56:50.670Z,95.19
2022-09-26T20:59:17.156Z,95.26
2022-09-26T21:01:44.069Z,94.99
2022-09-26T21:04:14.084Z,94.66
2022-09-26T21:06:41.682Z,94.71
2022-09-26T21:09:14.886Z,94.43
2022-09-26T21:11:41.701Z,94.32
2022-09-26T21:14:08.655Z,94.81
2022-09-26T21:16:38.725Z,94.33
2022-09-26T21:19:06.586Z,94.75
2022-09-26T21:21:33.122Z,94.78
2022-09-26T21:24:22.738Z,94.29
2022-09-26T21:26:51.518Z,93.57
2022-09-26T21:29:18.240Z,93.60
2022-09-26T21:31:47.543Z,93.69
2022-09-26T21:34:20.258Z,93.54
2022-09-26T21:36:47.220Z,93.64
2022-09-26T21:39:18.024Z,93.37
2022-09-26T21:41:46.099Z,93.65
2022-09-26T21:44:20.905Z,93.74
2022-09-26T21:46:47.633Z,94.07
2022-09-26T21:49:14.144Z,94.21
2022-09-26T21:51:41.585Z,94.26
2022-09-26T21:54:13.613Z,94.13
2022-09-26T21:56:48.070Z,94.30
2022-09-26T21:59:14.986Z,94.11
2022-09-26T22:01:41.615Z,94.25
2022-09-26T22:04:08.256Z,93.89
2022-09-26T22:06:34.834Z,94.15
2022-09-26T22:09:01.587Z,94.07
2022-09-26T22:11:28.162Z,94.45
2022-09-26T22:13:56.209Z,94.43
2022-09-26T22:16:22.788Z,94.51
2022-09-26T22:18:49.551Z,94.45
2022-09-26T22:21:16.240Z,94.58
2022-09-26T22:23:42.956Z,94.89
2022-09-26T22:26:09.696Z,94.52
2022-09-26T22:28:36.368Z,94.86
2022-09-26T22:31:05.151Z,94.65
2022-09-26T22:33:32.221Z,94.65
2022-09-26T22:35:58.815Z,94.80
2022-09-26T22:38:26.003Z,95.35
2022-09-26T22:40:55.816Z,95.37
2022-09-26T22:43:22.693Z,95.31
2022-09-26T22:45:49.267Z,95.36
2022-09-26T22:48:17.608Z,95.11
2022-09-26T22:50:44.200Z,94.87
2022-09-26T22:53:11.403Z,94.51
2022-09-26T22:55:38.238Z,94.37
2022-09-26T22:58:04.854Z,94.76
2022-09-26T23:00:31.423Z,94.96
2022-09-26T23:02:58.181Z,94.74
2022-09-26T23:05:26.198Z,94.78
2022-09-26T23:07:53.023Z,93.96
2022-09-26T23:10:19.563Z,94.16
2022-09-26T23:12:46.215Z,93.90
2022-09-26T23:15:12.818Z,93.87
2022-09-26T23:17:39.427Z,93.96
2022-09-26T23:20:07.056Z,93.65
2022-09-26T23:22:35.072Z,93.78
2022-09-26T23:25:01.589Z,93.95
2022-09-26T23:27:28.175Z,94.32
2022-09-26T23:29:54.688Z,94.41
2022-09-26T23:32:21.355Z,94.73
2022-09-26T23:34:47.887Z,94.34
2022-09-26T23:37:14.493Z,94.26
2022-09-26T23:39:42.448Z,94.37
2022-09-26T23:42:09.051Z,94.14
2022-09-26T23:44:35.615Z,94.46
2022-09-26T23:47:02.223Z,94.50
2022-09-26T23:49:28.776Z,94.76
2022-09-26T23:51:55.378Z,94.75
2022-09-26T23:54:22.050Z,95.35
2022-09-26T23:56:50.062Z,96.03
2022-09-26T23:59:16.614Z,95.78
